Time,TemperatureF,DewpointF,PressureIn,WindDirection,WindDirectionDegrees,WindSpeedMPH,WindSpeedGustMPH,Humidity,HourlyPrecipIn,Conditions,Clouds,dailyrainin,SoftwareType,DateUTC
2013-02-08 00:00:00,55.8,51.6,29.89,NE,45,0.0,0.0,86,0.00,,,0.00,WUHU21623XXSP,2013-02-08 06:00:00,
2013-02-08 00:05:00,55.8,51.6,29.90,NE,45,0.0,0.0,86,0.00,,,0.00,WUHU21623XXSP,2013-02-08 06:05:00,
2013-02-08 00:10:00,55.8,51.6,29.90,NE,45,0.0,0.0,86,0.00,,,0.00,WUHU21623XXSP,2013-02-08 06:10:00,
2013-02-08 00:15:00,55.8,51.6,29.89,NE,45,0.0,0.0,86,0.00,,,0.00,WUHU21623XXSP,2013-02-08 06:15:00,
2013-02-08 00:20:00,56.1,52.3,29.90,NNW,337,0.0,0.0,87,0.00,,,0.00,WUHU21623XXSP,2013-02-08 06:20:00,
2013-02-08 00:25:00,56.1,52.6,29.90,WNW,292,0.0,0.0,88,0.00,,,0.00,WUHU21623XXSP,2013-02-08 06:25:00,
2013-02-08 00:30:00,56.1,52.9,29.90,NW,315,0.0,0.0,89,0.00,,,0.00,WUHU21623XXSP,2013-02-08 06:30:00,
2013-02-08 00:35:00,56.3,53.1,29.89,NW,315,2.7,4.0,89,0.00,,,0.00,WUHU21623XXSP,2013-02-08 06:35:00,
2013-02-08 00:40:00,56.5,53.3,29.90,NW,315,4.0,4.7,89,0.00,,,0.00,WUHU21623XXSP,2013-02-08 06:40:00,
2013-02-08 00:45:00,56.5,53.6,29.90,North,0,2.9,4.7,90,0.00,,,0.00,WUHU21623XXSP,2013-02-08 06:45:00,
2013-02-08 00:50:00,56.5,53.6,29.90,WNW,292,2.2,4.0,90,0.00,,,0.00,WUHU21623XXSP,2013-02-08 06:50:00,
2013-02-08 00:55:00,56.3,53.4,29.90,NW,315,2.2,4.0,90,0.00,,,0.00,WUHU21623XXSP,2013-02-08 06:55:00,
2013-02-08 01:00:00,56.3,53.7,29.90,NW,315,5.4,5.4,91,0.00,,,0.00,WUHU21623XXSP,2013-02-08 07:00:00,
2013-02-08 01:05:00,56.3,53.7,29.90,NW,315,5.4,5.4,91,0.00,,,0.00,WUHU21623XXSP,2013-02-08 07:05:00,
2013-02-08 01:10:00,56.3,53.7,29.89,NW,315,2.9,5.4,91,0.00,,,0.00,WUHU21623XXSP,2013-02-08 07:10:00,
2013-02-08 01:15:00,56.1,53.8,29.90,NW,315,0.9,2.9,92,0.00,,,0.00,WUHU21623XXSP,2013-02-08 07:15:00,
2013-02-08 01:20:00,56.1,53.8,29.90,West,270,2.9,4.0,92,0.00,,,0.00,WUHU21623XXSP,2013-02-08 07:20:00,
2013-02-08 01:25:00,56.1,55.0,29.90,NW,315,1.6,3.4,96,0.00,,,0.00,WUHU21623XXSP,2013-02-08 07:25:00,
2013-02-08 01:30:00,56.1,55.0,29.90,NW,315,4.0,4.0,96,0.00,,,0.00,WUHU21623XXSP,2013-02-08 07:30:00,
2013-02-08 01:35:00,56.1,55.0,29.90,NW,315,5.8,5.8,96,0.00,,,0.00,WUHU21623XXSP,2013-02-08 07:35:00,
2013-02-08 01:40:00,56.1,55.0,29.90,WNW,292,1.8,5.8,96,0.00,,,0.00,WUHU21623XXSP,2013-02-08 07:40:00,
2013-02-08 01:45:00,55.8,54.6,29.91,NW,315,3.8,3.8,96,0.00,,,0.00,WUHU21623XXSP,2013-02-08 07:45:00,
2013-02-08 01:50:00,55.8,54.6,29.91,NW,315,1.6,3.8,96,0.00,,,0.00,WUHU21623XXSP,2013-02-08 07:50:00,
2013-02-08 01:55:00,55.8,54.6,29.91,NNW,337,4.7,4.7,96,0.00,,,0.00,WUHU21623XXSP,2013-02-08 07:55:00,
2013-02-08 02:00:00,55.8,54.6,29.91,NNE,22,1.3,4.7,96,0.00,,,0.00,WUHU21623XXSP,2013-02-08 08:00:00,
2013-02-08 02:05:00,55.8,54.6,29.91,North,0,1.8,6.7,96,0.00,,,0.00,WUHU21623XXSP,2013-02-08 08:05:00,
2013-02-08 02:10:00,55.8,54.6,29.91,NNE,22,0.0,6.7,96,0.00,,,0.00,WUHU21623XXSP,2013-02-08 08:10:00,
2013-02-08 02:15:00,55.6,54.4,29.91,NNE,22,0.4,0.4,96,0.00,,,0.00,WUHU21623XXSP,2013-02-08 08:15:00,
2013-02-08 02:20:00,55.4,54.2,29.92,NNE,22,1.3,1.3,96,0.00,,,0.00,WUHU21623XXSP,2013-02-08 08:20:00,
2013-02-08 02:25:00,55.4,54.2,29.92,NE,45,0.0,1.6,96,0.00,,,0.00,WUHU21623XXSP,2013-02-08 08:25:00,
2013-02-08 02:30:00,55.0,53.9,29.91,NNE,22,2.5,5.4,96,0.00,,,0.00,WUHU21623XXSP,2013-02-08 08:30:00,
2013-02-08 02:35:00,55.0,53.9,29.92,NNE,22,1.3,5.4,96,0.00,,,0.00,WUHU21623XXSP,2013-02-08 08:35:00,
2013-02-08 02:40:00,54.9,52.6,29.92,North,0,0.0,3.8,92,0.00,,,0.00,WUHU21623XXSP,2013-02-08 08:40:00,
2013-02-08 02:45:00,54.7,52.4,29.92,NNE,22,7.2,7.2,92,0.00,,,0.00,WUHU21623XXSP,2013-02-08 08:45:00,
2013-02-08 02:50:00,54.5,52.2,29.93,NNE,22,0.4,7.2,92,0.00,,,0.00,WUHU21623XXSP,2013-02-08 08:50:00,
2013-02-08 02:55:00,54.3,52.0,29.93,NW,315,4.9,4.9,92,0.00,,,0.00,WUHU21623XXSP,2013-02-08 08:55:00,
2013-02-08 03:00:00,54.0,51.7,29.93,ENE,67,3.1,4.9,92,0.00,,,0.00,WUHU21623XXSP,2013-02-08 09:00:00,
2013-02-08 03:05:00,54.0,51.7,29.93,NE,45,0.0,4.7,92,0.00,,,0.00,WUHU21623XXSP,2013-02-08 09:05:00,
2013-02-08 03:10:00,53.8,51.2,29.93,NNE,22,0.0,1.3,91,0.00,,,0.00,WUHU21623XXSP,2013-02-08 09:10:00,
2013-02-08 03:15:00,53.6,51.0,29.94,NW,315,8.7,8.7,91,0.00,,,0.00,WUHU21623XXSP,2013-02-08 09:15:00,
2013-02-08 03:20:00,53.2,50.6,29.94,NE,45,2.9,8.7,91,0.00,,,0.00,WUHU21623XXSP,2013-02-08 09:20:00,
2013-02-08 03:25:00,52.7,49.8,29.95,NNE,22,0.0,5.8,90,0.00,,,0.00,WUHU21623XXSP,2013-02-08 09:25:00,
2013-02-08 03:30:00,52.5,49.6,29.95,NE,45,3.4,8.3,90,0.00,,,0.00,WUHU21623XXSP,2013-02-08 09:30:00,
2013-02-08 03:35:00,52.2,49.6,29.96,NE,45,4.9,8.3,91,0.00,,,0.00,WUHU21623XXSP,2013-02-08 09:35:00,
2013-02-08 03:40:00,51.8,48.9,29.96,NE,45,3.4,8.1,90,0.00,,,0.00,WUHU21623XXSP,2013-02-08 09:40:00,
2013-02-08 03:45:00,51.6,48.7,29.96,NE,45,5.4,6.3,90,0.00,,,0.00,WUHU21623XXSP,2013-02-08 09:45:00,
2013-02-08 03:50:00,51.4,48.6,29.97,NNW,337,2.9,5.4,90,0.00,,,0.00,WUHU21623XXSP,2013-02-08 09:50:00,
2013-02-08 03:55:00,51.3,48.4,29.97,North,0,2.2,2.9,90,0.00,,,0.00,WUHU21623XXSP,2013-02-08 09:55:00,
2013-02-08 04:00:00,51.1,48.2,29.97,NNW,337,0.0,5.4,90,0.00,,,0.00,WUHU21623XXSP,2013-02-08 10:00:00,
2013-02-08 04:05:00,50.9,48.0,29.98,NE,45,0.0,6.7,90,0.00,,,0.00,WUHU21623XXSP,2013-02-08 10:05:00,
2013-02-08 04:10:00,50.7,48.1,29.98,North,0,2.0,6.7,91,0.00,,,0.00,WUHU21623XXSP,2013-02-08 10:10:00,
2013-02-08 04:15:00,50.4,47.8,29.98,NNE,22,0.0,2.0,91,0.00,,,0.00,WUHU21623XXSP,2013-02-08 10:15:00,
2013-02-08 04:20:00,50.2,47.3,29.98,NE,45,2.7,4.3,90,0.00,,,0.00,WUHU21623XXSP,2013-02-08 10:20:00,
2013-02-08 04:25:00,49.6,46.8,29.98,NE,45,0.0,4.3,90,0.00,,,0.00,WUHU21623XXSP,2013-02-08 10:25:00,
2013-02-08 04:30:00,49.3,46.5,29.98,NNE,22,2.9,3.8,90,0.00,,,0.00,WUHU21623XXSP,2013-02-08 10:30:00,
2013-02-08 04:35:00,48.9,46.1,29.98,North,0,1.3,2.9,90,0.00,,,0.00,WUHU21623XXSP,2013-02-08 10:35:00,
2013-02-08 04:40:00,48.6,45.8,29.99,NE,45,5.8,6.3,90,0.00,,,0.00,WUHU21623XXSP,2013-02-08 10:40:00,
2013-02-08 04:45:00,48.4,45.7,30.00,NNW,337,1.3,7.2,90,0.00,,,0.00,WUHU21623XXSP,2013-02-08 10:45:00,
2013-02-08 04:50:00,48.4,45.7,30.00,NNE,22,3.6,7.2,90,0.00,,,0.00,WUHU21623XXSP,2013-02-08 10:50:00,
2013-02-08 04:55:00,47.8,45.1,30.00,NNE,22,7.8,7.8,90,0.00,,,0.00,WUHU21623XXSP,2013-02-08 10:55:00,
2013-02-08 05:01:00,47.7,45.0,30.01,NE,45,4.9,7.8,90,0.00,,,0.00,WUHU21623XXSP,2013-02-08 11:01:00,
2013-02-08 05:06:00,47.3,44.6,30.01,NNW,337,1.3,5.8,90,0.00,,,0.00,WUHU21623XXSP,2013-02-08 11:06:00,
2013-02-08 05:11:00,47.3,44.6,30.02,North,0,1.8,5.8,90,0.00,,,0.00,WUHU21623XXSP,2013-02-08 11:11:00,
2013-02-08 05:16:00,47.3,44.9,30.02,ENE,67,2.2,6.7,91,0.00,,,0.00,WUHU21623XXSP,2013-02-08 11:16:00,
2013-02-08 05:21:00,47.1,44.7,30.02,North,0,4.0,6.7,91,0.00,,,0.00,WUHU21623XXSP,2013-02-08 11:21:00,
2013-02-08 05:26:00,46.9,44.8,30.02,NNE,22,0.0,5.6,92,0.00,,,0.00,WUHU21623XXSP,2013-02-08 11:26:00,
2013-02-08 05:31:00,46.9,44.8,30.03,North,0,3.8,5.1,92,0.00,,,0.00,WUHU21623XXSP,2013-02-08 11:31:00,
2013-02-08 05:36:00,46.8,44.6,30.03,NE,45,2.2,5.8,92,0.00,,,0.00,WUHU21623XXSP,2013-02-08 11:36:00,
2013-02-08 05:41:00,46.8,44.6,30.04,NNW,337,6.7,6.7,92,0.00,,,0.00,WUHU21623XXSP,2013-02-08 11:41:00,
2013-02-08 05:46:00,46.6,44.4,30.04,ENE,67,5.6,6.7,92,0.00,,,0.00,WUHU21623XXSP,2013-02-08 11:46:00,
2013-02-08 05:51:00,46.6,44.4,30.04,ENE,67,6.9,6.9,92,0.00,,,0.00,WUHU21623XXSP,2013-02-08 11:51:00,
2013-02-08 05:56:00,46.6,44.4,30.04,NNW,337,4.3,6.9,92,0.00,,,0.00,WUHU21623XXSP,2013-02-08 11:56:00,
2013-02-08 06:01:00,46.2,44.1,30.05,ENE,67,5.4,5.4,92,0.00,,,0.00,WUHU21623XXSP,2013-02-08 12:01:00,
2013-02-08 06:06:00,46.0,43.6,30.05,NNW,337,4.9,5.4,91,0.00,,,0.00,WUHU21623XXSP,2013-02-08 12:06:00,
2013-02-08 06:11:00,45.9,43.4,30.05,NNE,22,3.6,4.9,91,0.00,,,0.00,WUHU21623XXSP,2013-02-08 12:11:00,
2013-02-08 06:16:00,45.5,43.1,30.06,NNE,22,3.6,4.7,91,0.00,,,0.00,WUHU21623XXSP,2013-02-08 12:16:00,
2013-02-08 06:21:00,45.5,43.1,30.06,WNW,292,6.3,6.3,91,0.00,,,0.00,WUHU21623XXSP,2013-02-08 12:21:00,
2013-02-08 06:26:00,45.3,42.6,30.06,NNE,22,2.7,6.3,90,0.00,,,0.00,WUHU21623XXSP,2013-02-08 12:26:00,
2013-02-08 06:31:00,45.1,42.4,30.07,NNW,337,1.3,3.6,90,0.00,,,0.00,WUHU21623XXSP,2013-02-08 12:31:00,
2013-02-08 06:36:00,45.0,42.3,30.07,NE,45,2.9,3.6,90,0.00,,,0.00,WUHU21623XXSP,2013-02-08 12:36:00,
2013-02-08 06:41:00,45.0,42.3,30.08,NNE,22,2.0,5.8,90,0.00,,,0.00,WUHU21623XXSP,2013-02-08 12:41:00,
2013-02-08 06:46:00,44.8,41.8,30.08,NNE,22,2.7,5.8,89,0.00,,,0.00,WUHU21623XXSP,2013-02-08 12:46:00,
2013-02-08 06:51:00,44.8,41.8,30.08,North,0,4.0,5.6,89,0.00,,,0.00,WUHU21623XXSP,2013-02-08 12:51:00,
2013-02-08 06:56:00,44.8,41.8,30.09,North,0,5.8,5.8,89,0.00,,,0.00,WUHU21623XXSP,2013-02-08 12:56:00,
2013-02-08 07:01:00,44.6,41.6,30.09,North,0,5.8,5.8,89,0.00,,,0.00,WUHU21623XXSP,2013-02-08 13:01:00,
2013-02-08 07:06:00,44.6,41.6,30.10,ENE,67,1.8,5.8,89,0.00,,,0.00,WUHU21623XXSP,2013-02-08 13:06:00,
2013-02-08 07:11:00,44.4,41.4,30.10,NE,45,0.4,1.8,89,0.00,,,0.00,WUHU21623XXSP,2013-02-08 13:11:00,
2013-02-08 07:16:00,44.4,41.4,30.10,North,0,5.4,5.4,89,0.00,,,0.00,WUHU21623XXSP,2013-02-08 13:16:00,
2013-02-08 07:21:00,44.2,41.2,30.10,NNE,22,2.5,5.4,89,0.00,,,0.00,WUHU21623XXSP,2013-02-08 13:21:00,
2013-02-08 07:26:00,44.4,41.4,30.11,NE,45,1.8,5.1,89,0.00,,,0.00,WUHU21623XXSP,2013-02-08 13:26:00,
2013-02-08 07:31:00,44.2,41.2,30.11,NE,45,7.6,7.6,89,0.00,,,0.00,WUHU21623XXSP,2013-02-08 13:31:00,
2013-02-08 07:36:00,44.1,41.1,30.12,NE,45,5.6,7.6,89,0.00,,,0.00,WUHU21623XXSP,2013-02-08 13:36:00,
2013-02-08 07:41:00,44.1,41.1,30.12,ENE,67,12.3,12.3,89,0.00,,,0.00,WUHU21623XXSP,2013-02-08 13:41:00,
2013-02-08 07:46:00,43.9,40.6,30.12,NE,45,3.1,12.3,88,0.00,,,0.00,WUHU21623XXSP,2013-02-08 13:46:00,
2013-02-08 07:51:00,43.7,40.4,30.13,NNE,22,5.4,7.6,88,0.00,,,0.00,WUHU21623XXSP,2013-02-08 13:51:00,
2013-02-08 07:56:00,43.5,39.9,30.13,NNW,337,0.0,7.6,87,0.00,,,0.00,WUHU21623XXSP,2013-02-08 13:56:00,
2013-02-08 08:01:00,43.5,39.9,30.14,NW,315,6.3,6.9,87,0.00,,,0.00,WUHU21623XXSP,2013-02-08 14:01:00,
2013-02-08 08:06:00,43.3,39.7,30.14,North,0,2.0,6.7,87,0.00,,,0.00,WUHU21623XXSP,2013-02-08 14:06:00,
2013-02-08 08:11:00,43.2,39.2,30.15,NE,45,5.6,7.4,86,0.00,,,0.00,WUHU21623XXSP,2013-02-08 14:11:00,
2013-02-08 08:16:00,43.2,39.2,30.14,ENE,67,5.4,7.4,86,0.00,,,0.00,WUHU21623XXSP,2013-02-08 14:16:00,
2013-02-08 08:21:00,43.2,39.2,30.14,North,0,4.0,5.4,86,0.00,,,0.00,WUHU21623XXSP,2013-02-08 14:21:00,
2013-02-08 08:26:00,43.0,39.1,30.15,North,0,4.0,10.3,85,0.00,,,0.00,WUHU21623XXSP,2013-02-08 14:26:00,
2013-02-08 08:31:00,43.0,38.8,30.15,WNW,292,1.1,10.3,85,0.00,,,0.00,WUHU21623XXSP,2013-02-08 14:31:00,
2013-02-08 08:36:00,43.2,38.9,30.15,North,0,1.8,2.9,85,0.00,,,0.00,WUHU21623XXSP,2013-02-08 14:36:00,
2013-02-08 08:41:00,43.2,38.9,30.16,NNE,22,4.5,4.5,85,0.00,,,0.00,WUHU21623XXSP,2013-02-08 14:41:00,
2013-02-08 08:46:00,43.2,38.6,30.17,NNE,22,3.1,4.5,84,0.00,,,0.00,WUHU21623XXSP,2013-02-08 14:46:00,
2013-02-08 08:51:00,43.2,38.6,30.17,NE,45,3.8,6.3,84,0.00,,,0.00,WUHU21623XXSP,2013-02-08 14:51:00,
2013-02-08 08:56:00,43.2,38.3,30.17,North,0,3.8,6.3,83,0.00,,,0.00,WUHU21623XXSP,2013-02-08 14:56:00,
2013-02-08 09:01:00,43.2,38.3,30.17,WNW,292,6.0,6.0,83,0.00,,,0.00,WUHU21623XXSP,2013-02-08 15:01:00,
2013-02-08 09:06:00,43.2,38.3,30.17,NE,45,6.5,6.5,83,0.00,,,0.00,WUHU21623XXSP,2013-02-08 15:06:00,
2013-02-08 09:11:00,43.3,38.2,30.18,NE,45,3.8,6.5,82,0.00,,,0.00,WUHU21623XXSP,2013-02-08 15:11:00,
2013-02-08 09:16:00,43.5,38.4,30.18,NNE,22,2.0,6.7,82,0.00,,,0.00,WUHU21623XXSP,2013-02-08 15:16:00,
2013-02-08 09:21:00,43.5,38.1,30.19,WNW,292,3.6,6.7,81,0.00,,,0.00,WUHU21623XXSP,2013-02-08 15:21:00,
2013-02-08 09:26:00,43.7,37.9,30.19,NE,45,3.1,5.6,80,0.00,,,0.00,WUHU21623XXSP,2013-02-08 15:26:00,
2013-02-08 09:31:00,43.5,37.4,30.19,WNW,292,2.2,5.6,79,0.00,,,0.00,WUHU21623XXSP,2013-02-08 15:31:00,
2013-02-08 09:36:00,43.7,37.6,30.19,NNE,22,3.1,3.6,79,0.00,,,0.00,WUHU21623XXSP,2013-02-08 15:36:00,
2013-02-08 09:41:00,43.7,37.6,30.19,NNE,22,0.0,3.6,79,0.00,,,0.00,WUHU21623XXSP,2013-02-08 15:41:00,
2013-02-08 09:46:00,43.9,37.8,30.19,NE,45,2.7,7.2,79,0.00,,,0.00,WUHU21623XXSP,2013-02-08 15:46:00,
2013-02-08 09:51:00,44.1,37.6,30.20,North,0,2.2,7.2,78,0.00,,,0.00,WUHU21623XXSP,2013-02-08 15:51:00,
2013-02-08 09:56:00,44.1,37.6,30.20,North,0,0.7,7.2,78,0.00,,,0.00,WUHU21623XXSP,2013-02-08 15:56:00,
2013-02-08 10:01:00,44.1,37.3,30.20,North,0,3.8,7.2,77,0.00,,,0.00,WUHU21623XXSP,2013-02-08 16:01:00,
2013-02-08 10:06:00,44.4,38.0,30.21,ENE,67,3.4,5.6,78,0.00,,,0.00,WUHU21623XXSP,2013-02-08 16:06:00,
2013-02-08 10:12:00,44.4,37.6,30.21,NNE,22,2.7,5.4,77,0.00,,,0.00,WUHU21623XXSP,2013-02-08 16:12:00,
2013-02-08 10:16:00,44.8,38.0,30.21,NW,315,8.1,8.1,77,0.00,,,0.00,WUHU21623XXSP,2013-02-08 16:16:00,
2013-02-08 10:21:00,44.8,37.7,30.21,NNE,22,5.6,8.1,76,0.00,,,0.00,WUHU21623XXSP,2013-02-08 16:21:00,
2013-02-08 10:26:00,45.0,37.8,30.22,NE,45,3.4,5.6,76,0.00,,,0.00,WUHU21623XXSP,2013-02-08 16:26:00,
2013-02-08 10:31:00,45.0,37.8,30.22,ENE,67,4.9,5.4,76,0.00,,,0.00,WUHU21623XXSP,2013-02-08 16:31:00,
2013-02-08 10:36:00,45.0,37.5,30.23,NW,315,0.4,12.1,75,0.00,,,0.00,WUHU21623XXSP,2013-02-08 16:36:00,
2013-02-08 10:41:00,44.8,37.3,30.23,NNW,337,1.6,12.1,75,0.00,,,0.00,WUHU21623XXSP,2013-02-08 16:41:00,
2013-02-08 10:47:00,44.8,37.0,30.23,NW,315,3.6,4.9,74,0.00,,,0.00,WUHU21623XXSP,2013-02-08 16:47:00,
2013-02-08 10:52:00,44.8,37.3,30.24,NE,45,1.6,3.6,75,0.00,,,0.00,WUHU21623XXSP,2013-02-08 16:52:00,
2013-02-08 10:57:00,45.0,37.8,30.24,North,0,4.0,4.0,76,0.00,,,0.00,WUHU21623XXSP,2013-02-08 16:57:00,
2013-02-08 11:02:00,45.1,38.0,30.24,NNE,22,5.1,5.1,76,0.00,,,0.00,WUHU21623XXSP,2013-02-08 17:02:00,
2013-02-08 11:07:00,45.5,38.4,30.23,NE,45,5.4,5.4,76,0.00,,,0.00,WUHU21623XXSP,2013-02-08 17:07:00,
2013-02-08 11:12:00,45.7,38.2,30.23,ENE,67,4.3,5.4,75,0.00,,,0.00,WUHU21623XXSP,2013-02-08 17:12:00,
2013-02-08 11:17:00,45.9,38.0,30.24,NE,45,2.5,4.3,74,0.00,,,0.00,WUHU21623XXSP,2013-02-08 17:17:00,
2013-02-08 11:22:00,45.5,37.3,30.24,NE,45,4.7,4.7,73,0.00,,,0.00,WUHU21623XXSP,2013-02-08 17:22:00,
2013-02-08 11:27:00,45.5,37.3,30.24,NW,315,3.4,4.7,73,0.00,,,0.00,WUHU21623XXSP,2013-02-08 17:27:00,
2013-02-08 11:32:00,45.3,37.0,30.24,NNE,22,3.6,3.6,72,0.00,,,0.00,WUHU21623XXSP,2013-02-08 17:32:00,
2013-02-08 11:37:00,45.1,36.6,30.24,NNE,22,3.1,3.8,72,0.00,,,0.00,WUHU21623XXSP,2013-02-08 17:37:00,
2013-02-08 11:42:00,45.1,36.6,30.24,North,0,3.8,3.8,72,0.00,,,0.00,WUHU21623XXSP,2013-02-08 17:42:00,
2013-02-08 11:47:00,45.5,37.0,30.24,NNE,22,4.9,4.9,72,0.00,,,0.00,WUHU21623XXSP,2013-02-08 17:47:00,
2013-02-08 11:52:00,45.9,37.4,30.25,NE,45,6.9,6.9,72,0.00,,,0.00,WUHU21623XXSP,2013-02-08 17:52:00,
2013-02-08 11:57:00,45.9,37.0,30.24,NNW,337,0.0,6.9,71,0.00,,,0.00,WUHU21623XXSP,2013-02-08 17:57:00,
2013-02-08 12:02:00,45.7,36.5,30.24,NE,45,3.6,4.3,70,0.00,,,0.00,WUHU21623XXSP,2013-02-08 18:02:00,
2013-02-08 12:07:00,45.5,36.3,30.24,NNE,22,10.5,10.5,70,0.00,,,0.00,WUHU21623XXSP,2013-02-08 18:07:00,
2013-02-08 12:12:00,45.3,35.7,30.24,NE,45,4.3,10.5,69,0.00,,,0.00,WUHU21623XXSP,2013-02-08 18:12:00,
2013-02-08 12:17:00,45.5,36.7,30.24,NNW,337,7.6,7.6,71,0.00,,,0.00,WUHU21623XXSP,2013-02-08 18:17:00,
2013-02-08 12:22:00,45.5,36.7,30.24,NNE,22,5.8,7.6,71,0.00,,,0.00,WUHU21623XXSP,2013-02-08 18:22:00,
2013-02-08 12:27:00,45.9,36.8,30.25,ENE,67,2.2,5.8,71,0.00,,,0.00,WUHU21623XXSP,2013-02-08 18:27:00,
2013-02-08 12:32:00,46.0,37.2,30.24,ENE,67,4.3,4.3,71,0.00,,,0.00,WUHU21623XXSP,2013-02-08 18:32:00,
2013-02-08 12:37:00,46.0,37.2,30.25,ENE,67,3.4,4.3,71,0.00,,,0.00,WUHU21623XXSP,2013-02-08 18:37:00,
2013-02-08 12:42:00,46.6,38.1,30.25,NNE,22,1.3,5.1,72,0.00,,,0.00,WUHU21623XXSP,2013-02-08 18:42:00,
2013-02-08 12:47:00,46.8,37.9,30.25,NNE,22,0.7,5.1,71,0.00,,,0.00,WUHU21623XXSP,2013-02-08 18:47:00,
2013-02-08 12:52:00,46.9,38.0,30.25,NE,45,2.0,4.7,71,0.00,,,0.00,WUHU21623XXSP,2013-02-08 18:52:00,
2013-02-08 12:57:00,47.1,37.9,30.24,NE,45,4.3,4.7,70,0.00,,,0.00,WUHU21623XXSP,2013-02-08 18:57:00,
2013-02-08 13:02:00,47.3,38.0,30.24,NE,45,4.9,4.9,70,0.00,,,0.00,WUHU21623XXSP,2013-02-08 19:02:00,
2013-02-08 13:07:00,47.1,37.5,30.24,NE,45,5.1,5.1,69,0.00,,,0.00,WUHU21623XXSP,2013-02-08 19:07:00,
2013-02-08 13:12:00,46.9,36.9,30.23,NE,45,1.8,5.1,68,0.00,,,0.00,WUHU21623XXSP,2013-02-08 19:12:00,
2013-02-08 13:17:00,47.1,37.5,30.23,NE,45,4.0,4.0,69,0.00,,,0.00,WUHU21623XXSP,2013-02-08 19:17:00,
2013-02-08 13:22:00,47.1,37.5,30.24,NNW,337,2.9,4.0,69,0.00,,,0.00,WUHU21623XXSP,2013-02-08 19:22:00,
2013-02-08 13:27:00,46.6,36.2,30.23,SW,225,0.7,6.5,67,0.00,,,0.00,WUHU21623XXSP,2013-02-08 19:27:00,
2013-02-08 13:32:00,46.0,35.3,30.24,NNW,337,2.9,6.5,66,0.00,,,0.00,WUHU21623XXSP,2013-02-08 19:32:00,
2013-02-08 13:37:00,45.9,35.5,30.24,NE,45,2.5,4.9,67,0.00,,,0.00,WUHU21623XXSP,2013-02-08 19:37:00,
2013-02-08 13:42:00,46.6,37.0,30.23,NE,45,2.9,6.0,69,0.00,,,0.00,WUHU21623XXSP,2013-02-08 19:42:00,
2013-02-08 13:47:00,46.9,36.9,30.24,ENE,67,1.1,6.0,68,0.00,,,0.00,WUHU21623XXSP,2013-02-08 19:47:00,
2013-02-08 13:52:00,48.0,37.9,30.23,NE,45,1.8,4.3,68,0.00,,,0.00,WUHU21623XXSP,2013-02-08 19:52:00,
2013-02-08 13:57:00,49.5,38.5,30.23,NE,45,2.9,4.9,66,0.00,,,0.00,WUHU21623XXSP,2013-02-08 19:57:00,
2013-02-08 14:02:00,50.0,38.7,30.23,North,0,3.1,4.9,65,0.00,,,0.00,WUHU21623XXSP,2013-02-08 20:02:00,
2013-02-08 14:07:00,50.2,37.6,30.23,North,0,6.3,6.3,62,0.00,,,0.00,WUHU21623XXSP,2013-02-08 20:07:00,
2013-02-08 14:12:00,50.2,37.2,30.23,NNE,22,4.7,6.3,61,0.00,,,0.00,WUHU21623XXSP,2013-02-08 20:12:00,
2013-02-08 14:17:00,50.2,37.6,30.23,ENE,67,5.6,5.6,62,0.00,,,0.00,WUHU21623XXSP,2013-02-08 20:17:00,
2013-02-08 14:22:00,50.9,38.3,30.23,NE,45,2.5,5.6,62,0.00,,,0.00,WUHU21623XXSP,2013-02-08 20:22:00,
2013-02-08 14:27:00,50.9,37.0,30.23,ENE,67,5.1,5.1,59,0.00,,,0.00,WUHU21623XXSP,2013-02-08 20:27:00,
2013-02-08 14:33:00,50.9,37.0,30.23,North,0,1.6,5.1,59,0.00,,,0.00,WUHU21623XXSP,2013-02-08 20:33:00,
2013-02-08 14:37:00,50.7,37.3,30.23,NE,45,2.7,2.7,61,0.00,,,0.00,WUHU21623XXSP,2013-02-08 20:37:00,
2013-02-08 14:42:00,50.9,37.0,30.23,NE,45,2.7,2.7,59,0.00,,,0.00,WUHU21623XXSP,2013-02-08 20:42:00,
2013-02-08 14:47:00,51.3,37.8,30.23,ENE,67,4.9,4.9,60,0.00,,,0.00,WUHU21623XXSP,2013-02-08 20:47:00,
2013-02-08 14:52:00,50.9,37.0,30.23,NE,45,4.3,4.9,59,0.00,,,0.00,WUHU21623XXSP,2013-02-08 20:52:00,
2013-02-08 14:57:00,50.5,36.7,30.23,NE,45,1.1,4.3,59,0.00,,,0.00,WUHU21623XXSP,2013-02-08 20:57:00,
2013-02-08 15:02:00,50.9,37.9,30.23,NE,45,1.8,4.3,61,0.00,,,0.00,WUHU21623XXSP,2013-02-08 21:02:00,
2013-02-08 15:07:00,51.1,38.0,30.23,NE,45,1.8,1.8,61,0.00,,,0.00,WUHU21623XXSP,2013-02-08 21:07:00,
2013-02-08 15:12:00,51.1,37.4,30.23,NE,45,0.0,3.6,59,0.00,,,0.00,WUHU21623XXSP,2013-02-08 21:12:00,
2013-02-08 15:17:00,51.1,37.2,30.23,NE,45,0.0,3.6,59,0.00,,,0.00,WUHU21623XXSP,2013-02-08 21:17:00,
2013-02-08 15:22:00,50.9,37.5,30.23,ENE,67,2.7,3.8,60,0.00,,,0.00,WUHU21623XXSP,2013-02-08 21:22:00,
2013-02-08 15:27:00,50.9,37.5,30.23,ENE,67,2.7,3.8,60,0.00,,,0.00,WUHU21623XXSP,2013-02-08 21:27:00,
2013-02-08 15:32:00,50.2,36.4,30.23,NNE,22,0.0,2.7,59,0.00,,,0.00,WUHU21623XXSP,2013-02-08 21:32:00,
2013-02-08 15:37:00,50.0,36.2,30.24,NNW,337,0.0,1.6,59,0.00,,,0.00,WUHU21623XXSP,2013-02-08 21:37:00,
2013-02-08 15:42:00,50.2,36.8,30.24,NNE,22,1.1,5.8,60,0.00,,,0.00,WUHU21623XXSP,2013-02-08 21:42:00,
2013-02-08 15:47:00,50.2,36.8,30.24,NNE,22,1.1,5.8,60,0.00,,,0.00,WUHU21623XXSP,2013-02-08 21:47:00,
2013-02-08 15:52:00,48.9,35.2,30.25,North,0,2.5,2.5,59,0.00,,,0.00,WUHU21623XXSP,2013-02-08 21:52:00,
2013-02-08 15:57:00,48.9,35.2,30.25,North,0,2.5,2.5,59,0.00,,,0.00,WUHU21623XXSP,2013-02-08 21:57:00,
2013-02-08 16:02:00,48.4,35.6,30.24,NE,45,2.2,2.5,61,0.00,,,0.00,WUHU21623XXSP,2013-02-08 22:02:00,
2013-02-08 16:07:00,48.7,36.3,30.24,NE,45,0.0,2.2,62,0.00,,,0.00,WUHU21623XXSP,2013-02-08 22:07:00,
2013-02-08 16:12:00,49.6,36.4,30.24,ENE,67,2.9,2.9,60,0.00,,,0.00,WUHU21623XXSP,2013-02-08 22:12:00,
2013-02-08 16:17:00,49.6,36.4,30.24,ENE,67,2.9,2.9,60,0.00,,,0.00,WUHU21623XXSP,2013-02-08 22:17:00,
2013-02-08 16:22:00,49.1,35.4,30.25,NNE,22,2.0,2.9,59,0.00,,,0.00,WUHU21623XXSP,2013-02-08 22:22:00,
2013-02-08 16:27:00,49.1,35.4,30.25,NNE,22,2.0,2.9,59,0.00,,,0.00,WUHU21623XXSP,2013-02-08 22:27:00,
2013-02-08 16:32:00,47.7,34.1,30.25,NE,45,0.0,2.0,59,0.00,,,0.00,WUHU21623XXSP,2013-02-08 22:32:00,
2013-02-08 16:37:00,47.5,33.9,30.25,NE,45,3.1,3.1,59,0.00,,,0.00,WUHU21623XXSP,2013-02-08 22:37:00,
2013-02-08 16:42:00,46.9,33.8,30.25,NE,45,3.6,3.6,60,0.00,,,0.00,WUHU21623XXSP,2013-02-08 22:42:00,
2013-02-08 16:47:00,46.2,33.5,30.26,NE,45,0.0,3.6,61,0.00,,,0.00,WUHU21623XXSP,2013-02-08 22:47:00,
2013-02-08 16:52:00,45.7,33.0,30.26,NNE,22,0.0,3.6,61,0.00,,,0.00,WUHU21623XXSP,2013-02-08 22:52:00,
2013-02-08 16:57:00,45.7,33.0,30.26,NNE,22,0.0,0.0,61,0.00,,,0.00,WUHU21623XXSP,2013-02-08 22:57:00,
2013-02-08 17:02:00,45.3,33.0,30.26,ENE,67,1.6,1.6,62,0.00,,,0.00,WUHU21623XXSP,2013-02-08 23:02:00,
2013-02-08 17:07:00,45.3,33.0,30.26,ENE,67,1.6,1.6,62,0.00,,,0.00,WUHU21623XXSP,2013-02-08 23:07:00,
2013-02-08 17:12:00,44.8,32.6,30.26,NNW,337,0.7,2.2,62,0.00,,,0.00,WUHU21623XXSP,2013-02-08 23:12:00,
2013-02-08 17:17:00,44.2,32.0,30.26,NNE,22,2.2,2.2,62,0.00,,,0.00,WUHU21623XXSP,2013-02-08 23:17:00,
2013-02-08 17:22:00,43.5,32.1,30.27,NE,45,2.0,2.2,64,0.00,,,0.00,WUHU21623XXSP,2013-02-08 23:22:00,
2013-02-08 17:27:00,43.5,32.1,30.27,NE,45,2.0,2.0,64,0.00,,,0.00,WUHU21623XXSP,2013-02-08 23:27:00,
2013-02-08 17:32:00,42.4,31.1,30.26,NE,45,5.1,5.1,64,0.00,,,0.00,WUHU21623XXSP,2013-02-08 23:32:00,
2013-02-08 17:37:00,42.4,31.1,30.26,NE,45,5.1,5.1,64,0.00,,,0.00,WUHU21623XXSP,2013-02-08 23:37:00,
2013-02-08 17:42:00,41.7,30.8,30.26,NE,45,2.2,5.1,65,0.00,,,0.00,WUHU21623XXSP,2013-02-08 23:42:00,
2013-02-08 17:47:00,41.2,30.6,30.25,NNE,22,1.6,2.2,66,0.00,,,0.00,WUHU21623XXSP,2013-02-08 23:47:00,
2013-02-08 17:52:00,40.6,30.1,30.25,NNE,22,0.9,3.8,66,0.00,,,0.00,WUHU21623XXSP,2013-02-08 23:52:00,
2013-02-08 17:57:00,40.5,29.9,30.25,NE,45,1.3,3.8,66,0.00,,,0.00,WUHU21623XXSP,2013-02-08 23:57:00,
2013-02-08 18:03:00,39.7,29.6,30.25,ENE,67,1.3,2.5,67,0.00,,,0.00,WUHU21623XXSP,2013-02-09 00:03:00,
2013-02-08 18:08:00,39.6,29.4,30.25,NE,45,3.4,3.4,67,0.00,,,0.00,WUHU21623XXSP,2013-02-09 00:08:00,
2013-02-08 18:13:00,39.4,29.6,30.25,ENE,67,2.5,3.4,68,0.00,,,0.00,WUHU21623XXSP,2013-02-09 00:13:00,
2013-02-08 18:18:00,39.4,29.6,30.25,NE,45,2.5,3.4,68,0.00,,,0.00,WUHU21623XXSP,2013-02-09 00:18:00,
2013-02-08 18:23:00,39.2,29.8,30.25,East,90,2.5,2.5,69,0.00,,,0.00,WUHU21623XXSP,2013-02-09 00:23:00,
2013-02-08 18:28:00,39.2,30.2,30.25,ENE,67,0.0,2.5,70,0.00,,,0.00,WUHU21623XXSP,2013-02-09 00:28:00,
2013-02-08 18:33:00,39.2,30.5,30.25,NE,45,5.1,5.1,71,0.00,,,0.00,WUHU21623XXSP,2013-02-09 00:33:00,
2013-02-08 18:38:00,39.4,30.7,30.25,ENE,67,6.0,6.0,71,0.00,,,0.00,WUHU21623XXSP,2013-02-09 00:38:00,
2013-02-08 18:43:00,39.4,30.7,30.26,NE,45,0.0,6.0,71,0.00,,,0.00,WUHU21623XXSP,2013-02-09 00:43:00,
2013-02-08 18:48:00,39.4,30.7,30.26,NNE,22,0.0,6.0,71,0.00,,,0.00,WUHU21623XXSP,2013-02-09 00:48:00,
2013-02-08 18:53:00,39.4,30.7,30.26,ENE,67,3.8,3.8,71,0.00,,,0.00,WUHU21623XXSP,2013-02-09 00:53:00,
2013-02-08 18:58:00,39.2,30.5,30.27,NNE,22,3.4,7.6,71,0.00,,,0.00,WUHU21623XXSP,2013-02-09 00:58:00,
2013-02-08 19:03:00,38.8,30.2,30.27,West,270,0.0,7.6,71,0.00,,,0.00,WUHU21623XXSP,2013-02-09 01:03:00,
2013-02-08 19:08:00,38.8,30.2,30.27,ENE,67,1.6,3.4,71,0.00,,,0.00,WUHU21623XXSP,2013-02-09 01:08:00,
2013-02-08 19:13:00,38.5,29.9,30.27,NE,45,1.6,1.6,71,0.00,,,0.00,WUHU21623XXSP,2013-02-09 01:13:00,
2013-02-08 19:18:00,38.5,29.9,30.27,NE,45,2.7,2.7,71,0.00,,,0.00,WUHU21623XXSP,2013-02-09 01:18:00,
2013-02-08 19:23:00,38.3,29.7,30.27,ENE,67,0.9,2.7,71,0.00,,,0.00,WUHU21623XXSP,2013-02-09 01:23:00,
2013-02-08 19:28:00,38.3,29.7,30.28,ENE,67,0.9,2.7,71,0.00,,,0.00,WUHU21623XXSP,2013-02-09 01:28:00,
2013-02-08 19:33:00,38.3,29.7,30.28,NE,45,0.0,0.9,71,0.00,,,0.00,WUHU21623XXSP,2013-02-09 01:33:00,
2013-02-08 19:38:00,38.1,29.6,30.29,NE,45,0.7,0.9,71,0.00,,,0.00,WUHU21623XXSP,2013-02-09 01:38:00,
2013-02-08 19:43:00,38.1,29.9,30.30,NNE,22,0.0,0.7,72,0.00,,,0.00,WUHU21623XXSP,2013-02-09 01:43:00,
2013-02-08 19:48:00,38.1,29.9,30.29,North,0,2.7,2.7,72,0.00,,,0.00,WUHU21623XXSP,2013-02-09 01:48:00,
2013-02-08 19:53:00,38.1,29.9,30.29,NE,45,1.1,2.7,72,0.00,,,0.00,WUHU21623XXSP,2013-02-09 01:53:00,
2013-02-08 19:58:00,38.1,29.9,30.30,NE,45,0.0,2.7,72,0.00,,,0.00,WUHU21623XXSP,2013-02-09 01:58:00,
2013-02-08 20:03:00,38.1,29.9,30.30,East,90,1.6,1.6,72,0.00,,,0.00,WUHU21623XXSP,2013-02-09 02:03:00,
2013-02-08 20:08:00,38.3,30.1,30.30,ESE,112,3.1,3.1,72,0.00,,,0.00,WUHU21623XXSP,2013-02-09 02:08:00,
2013-02-08 20:13:00,38.1,29.9,30.30,East,90,3.4,3.4,72,0.00,,,0.00,WUHU21623XXSP,2013-02-09 02:13:00,
2013-02-08 20:18:00,38.3,30.1,30.30,ENE,67,0.0,3.4,72,0.00,,,0.00,WUHU21623XXSP,2013-02-09 02:18:00,
2013-02-08 20:23:00,38.3,30.4,30.29,ENE,67,3.4,3.4,73,0.00,,,0.00,WUHU21623XXSP,2013-02-09 02:23:00,
2013-02-08 20:28:00,38.1,30.2,30.29,ENE,67,3.6,3.6,73,0.00,,,0.00,WUHU21623XXSP,2013-02-09 02:28:00,
2013-02-08 20:33:00,38.1,30.2,30.29,ENE,67,3.6,3.6,73,0.00,,,0.00,WUHU21623XXSP,2013-02-09 02:33:00,
2013-02-08 20:38:00,38.1,29.9,30.29,ESE,112,0.0,3.6,72,0.00,,,0.00,WUHU21623XXSP,2013-02-09 02:38:00,
2013-02-08 20:43:00,38.1,29.9,30.29,ESE,112,0.0,0.0,72,0.00,,,0.00,WUHU21623XXSP,2013-02-09 02:43:00,
2013-02-08 20:48:00,37.8,29.6,30.30,ENE,67,1.1,1.1,72,0.00,,,0.00,WUHU21623XXSP,2013-02-09 02:48:00,
2013-02-08 20:53:00,37.6,29.4,30.30,NE,45,0.0,1.1,72,0.00,,,0.00,WUHU21623XXSP,2013-02-09 02:53:00,
2013-02-08 20:58:00,37.2,29.0,30.30,NE,45,0.2,1.1,72,0.00,,,0.00,WUHU21623XXSP,2013-02-09 02:58:00,
2013-02-08 21:03:00,36.5,28.0,30.30,NE,45,0.0,0.2,71,0.00,,,0.00,WUHU21623XXSP,2013-02-09 03:03:00,
2013-02-08 21:08:00,36.3,27.8,30.30,NE,45,0.0,0.2,71,0.00,,,0.00,WUHU21623XXSP,2013-02-09 03:08:00,
2013-02-08 21:13:00,36.3,27.8,30.30,NE,45,0.0,0.0,71,0.00,,,0.00,WUHU21623XXSP,2013-02-09 03:13:00,
2013-02-08 21:18:00,35.8,27.3,30.29,NE,45,0.0,0.0,71,0.00,,,0.00,WUHU21623XXSP,2013-02-09 03:18:00,
2013-02-08 21:23:00,35.4,27.3,30.29,NE,45,0.0,0.0,71,0.00,,,0.00,WUHU21623XXSP,2013-02-09 03:23:00,
2013-02-08 21:28:00,35.1,26.6,30.29,NE,45,0.0,0.0,71,0.00,,,0.00,WUHU21623XXSP,2013-02-09 03:28:00,
2013-02-08 21:34:00,34.7,26.2,30.29,NE,45,0.0,0.0,71,0.00,,,0.00,WUHU21623XXSP,2013-02-09 03:34:00,
2013-02-08 21:39:00,34.7,26.2,30.29,NE,45,0.0,0.0,71,0.00,,,0.00,WUHU21623XXSP,2013-02-09 03:39:00,
2013-02-08 21:44:00,34.7,26.2,30.29,NE,45,0.0,0.0,71,0.00,,,0.00,WUHU21623XXSP,2013-02-09 03:44:00,
2013-02-08 21:48:00,34.0,25.5,30.29,NE,45,0.0,0.0,71,0.00,,,0.00,WUHU21623XXSP,2013-02-09 03:48:00,
2013-02-08 21:54:00,34.0,25.5,30.29,NE,45,0.0,0.0,71,0.00,,,0.00,WUHU21623XXSP,2013-02-09 03:54:00,
2013-02-08 21:59:00,33.6,25.5,30.29,NE,45,0.0,0.0,72,0.00,,,0.00,WUHU21623XXSP,2013-02-09 03:59:00,
2013-02-08 22:04:00,33.4,25.3,30.29,NE,45,0.0,0.0,72,0.00,,,0.00,WUHU21623XXSP,2013-02-09 04:04:00,
2013-02-08 22:09:00,33.3,25.3,30.29,NE,45,0.0,0.0,72,0.00,,,0.00,WUHU21623XXSP,2013-02-09 04:09:00,
2013-02-08 22:14:00,33.3,25.1,30.29,NE,45,0.0,0.0,72,0.00,,,0.00,WUHU21623XXSP,2013-02-09 04:14:00,
2013-02-08 22:19:00,32.9,24.8,30.28,NE,45,0.0,0.0,72,0.00,,,0.00,WUHU21623XXSP,2013-02-09 04:19:00,
2013-02-08 22:24:00,32.9,24.8,30.28,NE,45,0.0,0.0,72,0.00,,,0.00,WUHU21623XXSP,2013-02-09 04:24:00,
2013-02-08 22:29:00,32.5,24.7,30.28,NE,45,0.0,0.0,72,0.00,,,0.00,WUHU21623XXSP,2013-02-09 04:29:00,
2013-02-08 22:34:00,32.2,24.2,30.28,NE,45,0.0,0.0,72,0.00,,,0.00,WUHU21623XXSP,2013-02-09 04:34:00,
2013-02-08 22:39:00,31.8,23.8,30.28,NE,45,0.0,0.0,72,0.00,,,0.00,WUHU21623XXSP,2013-02-09 04:39:00,
2013-02-08 22:44:00,31.8,23.8,30.27,NE,45,0.0,0.0,72,0.00,,,0.00,WUHU21623XXSP,2013-02-09 04:44:00,
2013-02-08 22:49:00,31.5,23.5,30.27,NE,45,0.0,0.0,72,0.00,,,0.00,WUHU21623XXSP,2013-02-09 04:49:00,
2013-02-08 22:54:00,31.5,23.5,30.28,NE,45,0.0,0.0,72,0.00,,,0.00,WUHU21623XXSP,2013-02-09 04:54:00,
2013-02-08 22:59:00,31.1,23.1,30.27,NE,45,0.0,0.0,72,0.00,,,0.00,WUHU21623XXSP,2013-02-09 04:59:00,
2013-02-08 23:00:00,31.1,23.1,30.27,NE,45,0.0,0.0,72,0.00,,,0.00,WUHU21623XXSP,2013-02-09 05:00:00,
2013-02-08 23:05:00,30.9,22.9,30.27,NE,45,0.0,0.0,72,0.00,,,0.00,WUHU21623XXSP,2013-02-09 05:05:00,
2013-02-08 23:10:00,30.9,22.9,30.27,NE,45,0.0,0.0,72,0.00,,,0.00,WUHU21623XXSP,2013-02-09 05:10:00,
2013-02-08 23:15:00,30.9,22.9,30.27,NE,45,0.0,0.0,72,0.00,,,0.00,WUHU21623XXSP,2013-02-09 05:15:00,
2013-02-08 23:20:00,30.9,23.3,30.27,NE,45,0.0,0.0,73,0.00,,,0.00,WUHU21623XXSP,2013-02-09 05:20:00,
2013-02-08 23:25:00,30.9,23.3,30.27,NE,45,0.0,0.0,73,0.00,,,0.00,WUHU21623XXSP,2013-02-09 05:25:00,
2013-02-08 23:30:00,30.6,23.2,30.27,NE,45,0.0,0.0,74,0.00,,,0.00,WUHU21623XXSP,2013-02-09 05:30:00,
2013-02-08 23:35:00,30.6,23.2,30.26,NE,45,0.0,0.0,74,0.00,,,0.00,WUHU21623XXSP,2013-02-09 05:35:00,
2013-02-08 23:40:00,30.6,23.2,30.26,NE,45,0.0,0.0,74,0.00,,,0.00,WUHU21623XXSP,2013-02-09 05:40:00,
2013-02-08 23:45:00,30.4,23.0,30.26,NE,45,0.0,0.0,74,0.00,,,0.00,WUHU21623XXSP,2013-02-09 05:45:00,
2013-02-08 23:50:00,30.4,23.0,30.28,NE,45,0.0,0.0,74,0.00,,,0.00,WUHU21623XXSP,2013-02-09 05:50:00,
2013-02-08 23:55:00,30.4,23.0,30.28,NE,45,0.0,0.0,74,0.00,,,0.00,WUHU21623XXSP,2013-02-09 05:55:00,